This is the latest recevied weather packets stored in our database for station/object ALTO-WX. If no packets are shown the sender has not sent any weather packets the latest 10 day(s).
| Time | Temp. | Humidity | Pressure | Rain* | Wind** | Luminosity | Snow |
|---|---|---|---|---|---|---|---|
| 1777619732 | 3.89° C | 80% | 983.9 hPa | 0 mm | - | - | - |
| 1777618860 | 3.89° C | 80% | 983.9 hPa | 0 mm | - | - | - |
| 1777617932 | 3.89° C | 73% | 984.3 hPa | 0 mm | - | - | - |
| 1777617052 | 3.89° C | 78% | 983.4 hPa | 0 mm | - | - | - |
| 1777616133 | 4.44° C | 78% | 983.4 hPa | 0 mm | - | - | - |
| 1777615266 | 4.44° C | 78% | 983.4 hPa | 0 mm | - | - | - |
| 1777614332 | 4.44° C | 72% | 985 hPa | 0 mm | - | - | - |
| 1777613451 | 4.44° C | 73% | 984.3 hPa | 0 mm | - | - | - |
| 1777612535 | 5° C | 73% | 984.3 hPa | 0 mm | - | - | - |
| 1777611660 | 5° C | 73% | 984.3 hPa | 0 mm | - | - | - |
| 1777610733 | 5° C | 68% | 985.4 hPa | 0 mm | - | - | - |
| 1777609852 | 5° C | 72% | 984.6 hPa | 0 mm | - | - | - |
| 1777608933 | 5° C | 72% | 984.6 hPa | 0 mm | - | - | - |
| 1777608062 | 5° C | 72% | 984.6 hPa | 0 mm | - | - | - |
| 1777607134 | 5° C | 67% | 984.5 hPa | 0 mm | - | - | - |
| 1777606249 | 5° C | 72% | 984 hPa | 0 mm | - | - | - |
| 1777605333 | 5.56° C | 72% | 984 hPa | 0 mm | - | - | - |
| 1777604458 | 5.56° C | 72% | 984 hPa | 0 mm | - | - | - |
| 1777603533 | 5.56° C | 67% | 984.3 hPa | 0 mm | - | - | - |
| 1777602646 | 5.56° C | 70% | 984.6 hPa | 0 mm | - | - | - |
| 1777601733 | 5.56° C | 70% | 984.5 hPa | 0 mm | - | - | - |
| 1777600853 | 5.56° C | 70% | 984.5 hPa | 0 mm | - | - | - |
| 1777599933 | 5.56° C | 60% | 984.7 hPa | 0 mm | - | - | - |
| 1777599047 | 5.56° C | 60% | 984.7 hPa | 0 mm | - | - | - |
| 1777598134 | 6.67° C | 60% | 984.8 hPa | 0 mm | - | - | - |
* Rain latest hour (hover to see other rain measurements)
** Current wind speed in m/s (hover to see current wind gust speed)